sensor_id;sensor_type;location;lat;lon;timestamp;pressure;altitude;pressure_sealevel;temperature;humidity
6032;BME280;3044;43.232;27.972;2023-08-12T00:01:17;45037.66;;;-143.84;58.39
6032;BME280;3044;43.232;27.972;2023-08-12T00:03:46;45035.75;;;-143.84;58.36
6032;BME280;3044;43.232;27.972;2023-08-12T00:06:14;45066.22;;;-143.84;58.28
6032;BME280;3044;43.232;27.972;2023-08-12T00:08:41;45043.34;;;-143.84;58.20
6032;BME280;3044;43.232;27.972;2023-08-12T00:11:08;45026.22;;;-143.84;58.20
6032;BME280;3044;43.232;27.972;2023-08-12T00:13:36;45068.13;;;-143.84;58.64
6032;BME280;3044;43.232;27.972;2023-08-12T00:16:04;45049.06;;;-143.84;58.28
6032;BME280;3044;43.232;27.972;2023-08-12T00:18:31;45037.66;;;-143.84;58.06
6032;BME280;3044;43.232;27.972;2023-08-12T00:21:06;45054.78;;;-143.84;58.36
6032;BME280;3044;43.232;27.972;2023-08-12T00:23:37;45041.44;;;-143.84;58.14
6032;BME280;3044;43.232;27.972;2023-08-12T00:26:04;45050.97;;;-143.84;58.02
6032;BME280;3044;43.232;27.972;2023-08-12T00:28:31;45037.66;;;-143.84;58.17
6032;BME280;3044;43.232;27.972;2023-08-12T00:31:00;45041.44;;;-143.84;57.97
6032;BME280;3044;43.232;27.972;2023-08-12T00:33:27;45081.44;;;-143.84;57.74
6032;BME280;3044;43.232;27.972;2023-08-12T00:35:54;45041.44;;;-143.84;57.54
6032;BME280;3044;43.232;27.972;2023-08-12T00:38:21;45047.16;;;-143.84;57.46
6032;BME280;3044;43.232;27.972;2023-08-12T00:40:49;45039.53;;;-143.84;57.75
6032;BME280;3044;43.232;27.972;2023-08-12T00:43:16;45037.66;;;-143.84;57.90
6032;BME280;3044;43.232;27.972;2023-08-12T00:45:43;45018.59;;;-143.84;57.96
6032;BME280;3044;43.232;27.972;2023-08-12T00:48:12;45035.75;;;-143.84;57.75
6032;BME280;3044;43.232;27.972;2023-08-12T00:50:39;45045.25;;;-143.84;57.85
6032;BME280;3044;43.232;27.972;2023-08-12T00:53:07;45056.69;;;-143.84;57.83
6032;BME280;3044;43.232;27.972;2023-08-12T00:55:35;45043.34;;;-143.84;58.04
6032;BME280;3044;43.232;27.972;2023-08-12T00:58:03;45045.25;;;-143.84;58.12
6032;BME280;3044;43.232;27.972;2023-08-12T01:00:31;45050.97;;;-143.84;58.13
6032;BME280;3044;43.232;27.972;2023-08-12T01:02:59;45037.66;;;-143.84;58.50
6032;BME280;3044;43.232;27.972;2023-08-12T01:05:29;45039.53;;;-143.84;58.87
6032;BME280;3044;43.232;27.972;2023-08-12T01:07:56;45035.75;;;-143.84;58.50
6032;BME280;3044;43.232;27.972;2023-08-12T01:10:24;45041.44;;;-143.84;58.53
6032;BME280;3044;43.232;27.972;2023-08-12T01:13:01;45060.50;;;-143.84;59.47
6032;BME280;3044;43.232;27.972;2023-08-12T01:15:32;45068.13;;;-143.84;59.51
6032;BME280;3044;43.232;27.972;2023-08-12T01:18:01;45045.25;;;-143.84;60.00
6032;BME280;3044;43.232;27.972;2023-08-12T01:20:30;45050.97;;;-143.84;61.06
6032;BME280;3044;43.232;27.972;2023-08-12T01:23:12;45037.66;;;-143.84;61.55
6032;BME280;3044;43.232;27.972;2023-08-12T01:25:39;45049.06;;;-143.84;61.27
6032;BME280;3044;43.232;27.972;2023-08-12T01:28:07;45054.78;;;-143.84;61.69
6032;BME280;3044;43.232;27.972;2023-08-12T01:30:37;45075.72;;;-143.84;61.99
6032;BME280;3044;43.232;27.972;2023-08-12T01:33:10;45050.97;;;-143.84;63.12
6032;BME280;3044;43.232;27.972;2023-08-12T01:35:41;45071.91;;;-143.84;63.08
6032;BME280;3044;43.232;27.972;2023-08-12T01:38:12;45064.31;;;-143.84;64.29
6032;BME280;3044;43.232;27.972;2023-08-12T01:40:39;45050.97;;;-143.84;64.48
6032;BME280;3044;43.232;27.972;2023-08-12T01:43:08;45064.31;;;-143.84;65.56
6032;BME280;3044;43.232;27.972;2023-08-12T01:45:36;45050.97;;;-143.84;66.27
6032;BME280;3044;43.232;27.972;2023-08-12T01:48:04;45056.69;;;-143.84;65.94
6032;BME280;3044;43.232;27.972;2023-08-12T01:50:31;45092.88;;;-143.84;67.30
6032;BME280;3044;43.232;27.972;2023-08-12T01:52:58;45077.63;;;-143.84;67.33
6032;BME280;3044;43.232;27.972;2023-08-12T01:55:27;45064.31;;;-143.84;67.75
6032;BME280;3044;43.232;27.972;2023-08-12T01:57:54;45056.69;;;-143.84;67.74
6032;BME280;3044;43.232;27.972;2023-08-12T02:00:21;45064.31;;;-143.84;67.70
6032;BME280;3044;43.232;27.972;2023-08-12T02:02:48;45083.34;;;-143.84;68.08
6032;BME280;3044;43.232;27.972;2023-08-12T02:05:15;45071.91;;;-143.84;68.35
6032;BME280;3044;43.232;27.972;2023-08-12T02:07:42;45052.88;;;-143.84;68.64
6032;BME280;3044;43.232;27.972;2023-08-12T02:10:10;45064.31;;;-143.84;69.25
6032;BME280;3044;43.232;27.972;2023-08-12T02:12:41;45056.69;;;-143.84;69.07
6032;BME280;3044;43.232;27.972;2023-08-12T02:15:10;45064.31;;;-143.84;69.46
6032;BME280;3044;43.232;27.972;2023-08-12T02:17:37;45056.69;;;-143.84;69.29
6032;BME280;3044;43.232;27.972;2023-08-12T02:20:05;45073.81;;;-143.84;69.32
6032;BME280;3044;43.232;27.972;2023-08-12T02:22:32;45077.63;;;-143.84;69.57
6032;BME280;3044;43.232;27.972;2023-08-12T02:24:59;45066.22;;;-143.84;69.80
6032;BME280;3044;43.232;27.972;2023-08-12T02:27:26;45071.91;;;-143.84;69.99
6032;BME280;3044;43.232;27.972;2023-08-12T02:29:55;45052.88;;;-143.84;70.48
6032;BME280;3044;43.232;27.972;2023-08-12T02:32:22;45090.97;;;-143.84;70.87
6032;BME280;3044;43.232;27.972;2023-08-12T02:34:49;45060.50;;;-143.84;71.18
6032;BME280;3044;43.232;27.972;2023-08-12T02:37:16;45068.13;;;-143.84;71.27
6032;BME280;3044;43.232;27.972;2023-08-12T02:39:43;45071.91;;;-143.84;71.37
6032;BME280;3044;43.232;27.972;2023-08-12T02:42:10;45075.72;;;-143.84;71.45
6032;BME280;3044;43.232;27.972;2023-08-12T02:44:37;45068.13;;;-143.84;71.79
6032;BME280;3044;43.232;27.972;2023-08-12T02:47:06;45079.53;;;-143.84;71.80
6032;BME280;3044;43.232;27.972;2023-08-12T02:49:33;45089.06;;;-143.84;71.88
6032;BME280;3044;43.232;27.972;2023-08-12T02:52:00;45077.63;;;-143.84;72.16
6032;BME280;3044;43.232;27.972;2023-08-12T02:54:28;45066.22;;;-143.84;72.77
6032;BME280;3044;43.232;27.972;2023-08-12T02:56:55;45071.91;;;-143.84;72.74
6032;BME280;3044;43.232;27.972;2023-08-12T02:59:22;45062.41;;;-143.84;73.19
6032;BME280;3044;43.232;27.972;2023-08-12T03:01:50;45064.31;;;-143.84;73.08
6032;BME280;3044;43.232;27.972;2023-08-12T03:04:19;45079.53;;;-143.84;73.32
6032;BME280;3044;43.232;27.972;2023-08-12T03:06:46;45089.06;;;-143.84;73.38
6032;BME280;3044;43.232;27.972;2023-08-12T03:09:13;45070.00;;;-143.84;73.16
6032;BME280;3044;43.232;27.972;2023-08-12T03:11:40;45081.44;;;-143.84;73.10
6032;BME280;3044;43.232;27.972;2023-08-12T03:14:07;45070.00;;;-143.84;73.04
6032;BME280;3044;43.232;27.972;2023-08-12T03:16:35;45089.06;;;-143.84;73.06
6032;BME280;3044;43.232;27.972;2023-08-12T03:19:02;45062.41;;;-143.84;72.83
6032;BME280;3044;43.232;27.972;2023-08-12T03:21:30;45068.13;;;-143.84;72.54
6032;BME280;3044;43.232;27.972;2023-08-12T03:23:57;45070.00;;;-143.84;72.65
6032;BME280;3044;43.232;27.972;2023-08-12T03:26:25;45062.41;;;-143.84;72.65
6032;BME280;3044;43.232;27.972;2023-08-12T03:28:52;45070.00;;;-143.84;72.57
6032;BME280;3044;43.232;27.972;2023-08-12T03:31:19;45087.16;;;-143.84;72.53
6032;BME280;3044;43.232;27.972;2023-08-12T03:33:46;45083.34;;;-143.84;72.06
6032;BME280;3044;43.232;27.972;2023-08-12T03:36:13;45071.91;;;-143.84;72.13
6032;BME280;3044;43.232;27.972;2023-08-12T03:38:42;45071.91;;;-143.84;71.79
6032;BME280;3044;43.232;27.972;2023-08-12T03:41:09;45070.00;;;-143.84;71.80
6032;BME280;3044;43.232;27.972;2023-08-12T03:43:36;45087.16;;;-143.84;71.30
6032;BME280;3044;43.232;27.972;2023-08-12T03:46:03;45068.13;;;-143.84;70.43
6032;BME280;3044;43.232;27.972;2023-08-12T03:48:30;45066.22;;;-143.84;68.82
6032;BME280;3044;43.232;27.972;2023-08-12T03:50:57;45064.31;;;-143.84;64.99
6032;BME280;3044;43.232;27.972;2023-08-12T03:53:24;45058.59;;;-143.84;60.61
6032;BME280;3044;43.232;27.972;2023-08-12T03:55:53;45052.88;;;-143.84;58.17
6032;BME280;3044;43.232;27.972;2023-08-12T03:58:20;45047.16;;;-143.84;57.30
6032;BME280;3044;43.232;27.972;2023-08-12T04:00:47;45012.88;;;-143.84;54.50
6032;BME280;3044;43.232;27.972;2023-08-12T04:03:14;45033.84;;;-143.84;52.20
6032;BME280;3044;43.232;27.972;2023-08-12T04:05:47;44995.75;;;-143.84;50.40
6032;BME280;3044;43.232;27.972;2023-08-12T04:08:15;45014.78;;;-143.84;49.42
6032;BME280;3044;43.232;27.972;2023-08-12T04:10:45;45003.38;;;-143.84;49.23
6032;BME280;3044;43.232;27.972;2023-08-12T04:13:14;44997.66;;;-143.84;48.71
6032;BME280;3044;43.232;27.972;2023-08-12T04:15:42;45007.19;;;-143.84;48.82
6032;BME280;3044;43.232;27.972;2023-08-12T04:18:09;44988.13;;;-143.84;47.88
6032;BME280;3044;43.232;27.972;2023-08-12T04:20:37;45014.78;;;-143.84;47.71
6032;BME280;3044;43.232;27.972;2023-08-12T04:23:05;45018.59;;;-143.84;47.65
6032;BME280;3044;43.232;27.972;2023-08-12T04:25:32;44997.66;;;-143.84;46.64
6032;BME280;3044;43.232;27.972;2023-08-12T04:27:59;45012.88;;;-143.84;46.42
6032;BME280;3044;43.232;27.972;2023-08-12T04:30:28;45007.19;;;-143.84;46.23
6032;BME280;3044;43.232;27.972;2023-08-12T04:32:55;44986.22;;;-143.84;45.92
6032;BME280;3044;43.232;27.972;2023-08-12T04:35:22;44997.66;;;-143.84;46.06
6032;BME280;3044;43.232;27.972;2023-08-12T04:37:49;45001.47;;;-143.84;45.64
6032;BME280;3044;43.232;27.972;2023-08-12T04:40:16;44965.28;;;-143.84;45.33
6032;BME280;3044;43.232;27.972;2023-08-12T04:42:43;44995.75;;;-143.84;45.41
6032;BME280;3044;43.232;27.972;2023-08-12T04:45:10;45009.09;;;-143.84;44.84
6032;BME280;3044;43.232;27.972;2023-08-12T04:47:39;44965.28;;;-143.84;45.03
6032;BME280;3044;43.232;27.972;2023-08-12T04:50:07;44988.13;;;-143.84;44.77
6032;BME280;3044;43.232;27.972;2023-08-12T04:52:34;44993.84;;;-143.84;44.02
6032;BME280;3044;43.232;27.972;2023-08-12T04:55:02;44980.53;;;-143.84;44.04
6032;BME280;3044;43.232;27.972;2023-08-12T04:57:30;44963.38;;;-143.84;43.53
6032;BME280;3044;43.232;27.972;2023-08-12T04:59:57;44969.09;;;-143.84;42.67
6032;BME280;3044;43.232;27.972;2023-08-12T05:02:24;44971.00;;;-143.84;42.25
6032;BME280;3044;43.232;27.972;2023-08-12T05:04:53;44957.66;;;-143.84;41.53
6032;BME280;3044;43.232;27.972;2023-08-12T05:07:20;44967.19;;;-143.84;41.28
6032;BME280;3044;43.232;27.972;2023-08-12T05:09:47;44944.34;;;-143.84;40.54
6032;BME280;3044;43.232;27.972;2023-08-12T05:12:15;44965.28;;;-143.84;39.86
6032;BME280;3044;43.232;27.972;2023-08-12T05:14:42;44934.81;;;-143.84;39.44
6032;BME280;3044;43.232;27.972;2023-08-12T05:17:09;44963.38;;;-143.84;39.42
6032;BME280;3044;43.232;27.972;2023-08-12T05:19:36;44938.63;;;-143.84;39.20
6032;BME280;3044;43.232;27.972;2023-08-12T05:22:05;44934.81;;;-143.84;38.58
6032;BME280;3044;43.232;27.972;2023-08-12T05:24:32;44921.50;;;-143.84;38.54
6032;BME280;3044;43.232;27.972;2023-08-12T05:26:59;44932.91;;;-143.84;38.23
6032;BME280;3044;43.232;27.972;2023-08-12T05:29:26;44923.41;;;-143.84;38.08
6032;BME280;3044;43.232;27.972;2023-08-12T05:31:53;44927.19;;;-143.84;37.45
6032;BME280;3044;43.232;27.972;2023-08-12T05:34:20;44915.78;;;-143.84;36.84
6032;BME280;3044;43.232;27.972;2023-08-12T05:36:47;44950.06;;;-143.84;37.27
6032;BME280;3044;43.232;27.972;2023-08-12T05:39:16;44913.88;;;-143.84;37.11
6032;BME280;3044;43.232;27.972;2023-08-12T05:41:43;44906.25;;;-143.84;36.41
6032;BME280;3044;43.232;27.972;2023-08-12T05:44:12;44892.94;;;-143.84;36.26
6032;BME280;3044;43.232;27.972;2023-08-12T05:46:39;44904.34;;;-143.84;36.36
6032;BME280;3044;43.232;27.972;2023-08-12T05:49:06;44934.81;;;-143.84;35.65
6032;BME280;3044;43.232;27.972;2023-08-12T05:51:33;44900.53;;;-143.84;35.79
6032;BME280;3044;43.232;27.972;2023-08-12T05:54:00;44906.25;;;-143.84;35.62
6032;BME280;3044;43.232;27.972;2023-08-12T05:56:29;44925.31;;;-143.84;35.42
6032;BME280;3044;43.232;27.972;2023-08-12T05:58:56;44883.41;;;-143.84;35.12
6032;BME280;3044;43.232;27.972;2023-08-12T06:01:23;44889.13;;;-143.84;35.08
6032;BME280;3044;43.232;27.972;2023-08-12T06:03:50;44873.88;;;-143.84;35.22
6032;BME280;3044;43.232;27.972;2023-08-12T06:06:17;44852.94;;;-143.84;34.96
6032;BME280;3044;43.232;27.972;2023-08-12T06:08:44;44866.28;;;-143.84;34.94
6032;BME280;3044;43.232;27.972;2023-08-12T06:11:11;44875.78;;;-143.84;33.65
6032;BME280;3044;43.232;27.972;2023-08-12T06:13:40;44889.13;;;-143.84;33.66
6032;BME280;3044;43.232;27.972;2023-08-12T06:16:07;44862.47;;;-143.84;33.62
6032;BME280;3044;43.232;27.972;2023-08-12T06:18:34;44894.84;;;-143.84;34.01
6032;BME280;3044;43.232;27.972;2023-08-12T06:21:01;44864.38;;;-143.84;33.70
6032;BME280;3044;43.232;27.972;2023-08-12T06:23:28;44871.97;;;-143.84;33.90
6032;BME280;3044;43.232;27.972;2023-08-12T06:25:56;44892.94;;;-143.84;33.48
6032;BME280;3044;43.232;27.972;2023-08-12T06:28:23;44877.69;;;-143.84;33.60
6032;BME280;3044;43.232;27.972;2023-08-12T06:30:52;44843.44;;;-143.84;32.74
6032;BME280;3044;43.232;27.972;2023-08-12T06:33:19;44871.97;;;-143.84;33.66
6032;BME280;3044;43.232;27.972;2023-08-12T06:35:46;44841.53;;;-143.84;32.88
6032;BME280;3044;43.232;27.972;2023-08-12T06:38:14;44864.38;;;-143.84;31.94
6032;BME280;3044;43.232;27.972;2023-08-12T06:40:41;44856.75;;;-143.84;32.20
6032;BME280;3044;43.232;27.972;2023-08-12T06:43:08;44870.09;;;-143.84;32.69
6032;BME280;3044;43.232;27.972;2023-08-12T06:45:36;44864.38;;;-143.84;32.41
6032;BME280;3044;43.232;27.972;2023-08-12T06:48:05;44839.63;;;-143.84;32.29
6032;BME280;3044;43.232;27.972;2023-08-12T06:50:32;44870.09;;;-143.84;32.54
6032;BME280;3044;43.232;27.972;2023-08-12T06:52:59;44849.13;;;-143.84;32.74
6032;BME280;3044;43.232;27.972;2023-08-12T06:55:27;44828.19;;;-143.84;33.37
6032;BME280;3044;43.232;27.972;2023-08-12T06:57:54;44868.19;;;-143.84;34.47
6032;BME280;3044;43.232;27.972;2023-08-12T07:00:21;44870.09;;;-143.84;34.05
6032;BME280;3044;43.232;27.972;2023-08-12T07:02:48;44873.88;;;-143.84;34.77
6032;BME280;3044;43.232;27.972;2023-08-12T07:05:16;44871.97;;;-143.84;34.32
6032;BME280;3044;43.232;27.972;2023-08-12T07:07:44;44862.47;;;-143.84;34.51
6032;BME280;3044;43.232;27.972;2023-08-12T07:10:11;44908.16;;;-143.84;34.39
6032;BME280;3044;43.232;27.972;2023-08-12T07:12:38;44847.22;;;-143.84;34.48
6032;BME280;3044;43.232;27.972;2023-08-12T07:15:06;44875.78;;;-143.84;34.08
6032;BME280;3044;43.232;27.972;2023-08-12T07:17:33;44835.81;;;-143.84;34.34
6032;BME280;3044;43.232;27.972;2023-08-12T07:20:00;44843.44;;;-143.84;34.96
6032;BME280;3044;43.232;27.972;2023-08-12T07:22:31;44864.38;;;-143.84;34.42
6032;BME280;3044;43.232;27.972;2023-08-12T07:24:58;44877.69;;;-143.84;34.91
6032;BME280;3044;43.232;27.972;2023-08-12T07:27:25;44873.88;;;-143.84;34.94
6032;BME280;3044;43.232;27.972;2023-08-12T07:29:52;44860.56;;;-143.84;34.83
6032;BME280;3044;43.232;27.972;2023-08-12T07:32:20;44894.84;;;-143.84;34.65
6032;BME280;3044;43.232;27.972;2023-08-12T07:34:47;44887.22;;;-143.84;35.36
6032;BME280;3044;43.232;27.972;2023-08-12T07:37:15;44864.38;;;-143.84;34.99
6032;BME280;3044;43.232;27.972;2023-08-12T07:39:43;44898.66;;;-143.84;34.74
6032;BME280;3044;43.232;27.972;2023-08-12T07:42:11;44877.69;;;-143.84;35.11
6032;BME280;3044;43.232;27.972;2023-08-12T07:44:38;44877.69;;;-143.84;35.90
6032;BME280;3044;43.232;27.972;2023-08-12T07:47:05;44885.31;;;-143.84;36.32
6032;BME280;3044;43.232;27.972;2023-08-12T07:49:32;44894.84;;;-143.84;37.57
6032;BME280;3044;43.232;27.972;2023-08-12T07:51:59;44883.41;;;-143.84;35.60
6032;BME280;3044;43.232;27.972;2023-08-12T07:54:26;44885.31;;;-143.84;35.68
6032;BME280;3044;43.232;27.972;2023-08-12T07:56:55;44889.13;;;-143.84;35.48
6032;BME280;3044;43.232;27.972;2023-08-12T07:59:22;44892.94;;;-143.84;35.95
6032;BME280;3044;43.232;27.972;2023-08-12T08:01:49;44873.88;;;-143.84;36.16
6032;BME280;3044;43.232;27.972;2023-08-12T08:04:16;44870.09;;;-143.84;35.02
6032;BME280;3044;43.232;27.972;2023-08-12T08:06:43;44873.88;;;-143.84;35.71
6032;BME280;3044;43.232;27.972;2023-08-12T08:09:10;44879.59;;;-143.84;35.21
6032;BME280;3044;43.232;27.972;2023-08-12T08:11:37;44847.22;;;-143.84;35.49
6032;BME280;3044;43.232;27.972;2023-08-12T08:14:06;44883.41;;;-143.84;35.95
6032;BME280;3044;43.232;27.972;2023-08-12T08:16:33;44881.50;;;-143.84;36.10
6032;BME280;3044;43.232;27.972;2023-08-12T08:19:00;44900.53;;;-143.84;35.84
6032;BME280;3044;43.232;27.972;2023-08-12T08:21:27;44902.44;;;-143.84;36.04
6032;BME280;3044;43.232;27.972;2023-08-12T08:23:55;44921.50;;;-143.84;35.67
6032;BME280;3044;43.232;27.972;2023-08-12T08:26:22;44925.31;;;-143.84;35.67
6032;BME280;3044;43.232;27.972;2023-08-12T08:28:49;44892.94;;;-143.84;35.62
6032;BME280;3044;43.232;27.972;2023-08-12T08:31:17;44908.16;;;-143.84;36.25
6032;BME280;3044;43.232;27.972;2023-08-12T08:33:45;44894.84;;;-143.84;36.73
6032;BME280;3044;43.232;27.972;2023-08-12T08:36:12;44913.88;;;-143.84;36.72
6032;BME280;3044;43.232;27.972;2023-08-12T08:38:39;44908.16;;;-143.84;36.86
6032;BME280;3044;43.232;27.972;2023-08-12T08:41:09;44908.16;;;-143.84;36.82
6032;BME280;3044;43.232;27.972;2023-08-12T08:43:37;44942.44;;;-143.84;37.38
6032;BME280;3044;43.232;27.972;2023-08-12T08:46:06;44934.81;;;-143.84;37.28
6032;BME280;3044;43.232;27.972;2023-08-12T08:48:35;44913.88;;;-143.84;38.52
6032;BME280;3044;43.232;27.972;2023-08-12T08:51:04;44904.34;;;-143.84;37.76
6032;BME280;3044;43.232;27.972;2023-08-12T08:53:34;44929.09;;;-143.84;38.74
6032;BME280;3044;43.232;27.972;2023-08-12T08:56:01;44940.53;;;-143.84;38.29
6032;BME280;3044;43.232;27.972;2023-08-12T08:58:29;44934.81;;;-143.84;37.92
6032;BME280;3044;43.232;27.972;2023-08-12T09:00:57;44938.63;;;-143.84;39.01
6032;BME280;3044;43.232;27.972;2023-08-12T09:03:24;44932.91;;;-143.84;39.89
6032;BME280;3044;43.232;27.972;2023-08-12T09:05:55;44929.09;;;-143.84;40.66
6032;BME280;3044;43.232;27.972;2023-08-12T09:08:23;44931.00;;;-143.84;40.31
6032;BME280;3044;43.232;27.972;2023-08-12T09:10:51;44942.44;;;-143.84;40.71
6032;BME280;3044;43.232;27.972;2023-08-12T09:13:18;44932.91;;;-143.84;40.37
6032;BME280;3044;43.232;27.972;2023-08-12T09:15:45;44919.59;;;-143.84;39.95
6032;BME280;3044;43.232;27.972;2023-08-12T09:18:12;44925.31;;;-143.84;37.86
6032;BME280;3044;43.232;27.972;2023-08-12T09:20:40;44898.66;;;-143.84;36.53
6032;BME280;3044;43.232;27.972;2023-08-12T09:23:10;44896.75;;;-143.84;36.87
6032;BME280;3044;43.232;27.972;2023-08-12T09:25:41;44891.03;;;-143.84;35.99
6032;BME280;3044;43.232;27.972;2023-08-12T09:28:10;44900.53;;;-143.84;36.20
6032;BME280;3044;43.232;27.972;2023-08-12T09:30:38;44896.75;;;-143.84;35.81
6032;BME280;3044;43.232;27.972;2023-08-12T09:33:06;44894.84;;;-143.84;38.43
6032;BME280;3044;43.232;27.972;2023-08-12T09:35:34;44875.78;;;-143.84;38.09
6032;BME280;3044;43.232;27.972;2023-08-12T09:38:03;44891.03;;;-143.84;36.78
6032;BME280;3044;43.232;27.972;2023-08-12T09:40:34;44891.03;;;-143.84;36.62
6032;BME280;3044;43.232;27.972;2023-08-12T09:43:01;44870.09;;;-143.84;37.30
6032;BME280;3044;43.232;27.972;2023-08-12T09:45:30;44881.50;;;-143.84;37.58
6032;BME280;3044;43.232;27.972;2023-08-12T09:47:57;44892.94;;;-143.84;38.15
6032;BME280;3044;43.232;27.972;2023-08-12T09:50:24;44902.44;;;-143.84;39.06
6032;BME280;3044;43.232;27.972;2023-08-12T09:52:53;44900.53;;;-143.84;39.44
6032;BME280;3044;43.232;27.972;2023-08-12T09:55:22;44881.50;;;-143.84;39.92
6032;BME280;3044;43.232;27.972;2023-08-12T09:57:52;44881.50;;;-143.84;39.96
6032;BME280;3044;43.232;27.972;2023-08-12T10:00:20;44904.34;;;-143.84;40.36
6032;BME280;3044;43.232;27.972;2023-08-12T10:02:50;44864.38;;;-143.84;39.46
6032;BME280;3044;43.232;27.972;2023-08-12T10:05:21;44908.16;;;-143.84;39.75
6032;BME280;3044;43.232;27.972;2023-08-12T10:07:52;44917.69;;;-143.84;39.00
6032;BME280;3044;43.232;27.972;2023-08-12T10:10:20;44889.13;;;-143.84;39.48
6032;BME280;3044;43.232;27.972;2023-08-12T10:12:48;44908.16;;;-143.84;40.68
6032;BME280;3044;43.232;27.972;2023-08-12T10:15:17;44885.31;;;-143.84;40.20
6032;BME280;3044;43.232;27.972;2023-08-12T10:17:44;44904.34;;;-143.84;41.45
6032;BME280;3044;43.232;27.972;2023-08-12T10:20:13;44915.78;;;-143.84;39.40
6032;BME280;3044;43.232;27.972;2023-08-12T10:22:43;44892.94;;;-143.84;39.57
6032;BME280;3044;43.232;27.972;2023-08-12T10:25:13;44902.44;;;-143.84;40.57
6032;BME280;3044;43.232;27.972;2023-08-12T10:27:41;44873.88;;;-143.84;39.61
6032;BME280;3044;43.232;27.972;2023-08-12T10:30:09;44894.84;;;-143.84;39.58
6032;BME280;3044;43.232;27.972;2023-08-12T10:32:38;44896.75;;;-143.84;39.56
6032;BME280;3044;43.232;27.972;2023-08-12T10:35:06;44917.69;;;-143.84;39.65
6032;BME280;3044;43.232;27.972;2023-08-12T10:37:34;44894.84;;;-143.84;40.10
6032;BME280;3044;43.232;27.972;2023-08-12T10:40:03;44915.78;;;-143.84;39.63
6032;BME280;3044;43.232;27.972;2023-08-12T10:42:42;44925.31;;;-143.84;39.85
6032;BME280;3044;43.232;27.972;2023-08-12T10:45:11;44900.53;;;-143.84;40.68
6032;BME280;3044;43.232;27.972;2023-08-12T10:47:41;44917.69;;;-143.84;39.60
6032;BME280;3044;43.232;27.972;2023-08-12T10:50:19;44896.75;;;-143.84;39.11
6032;BME280;3044;43.232;27.972;2023-08-12T10:52:47;44931.00;;;-143.84;38.92
6032;BME280;3044;43.232;27.972;2023-08-12T10:55:20;44910.06;;;-143.84;39.18
6032;BME280;3044;43.232;27.972;2023-08-12T10:57:48;44870.09;;;-143.84;39.28
6032;BME280;3044;43.232;27.972;2023-08-12T11:00:17;44900.53;;;-143.84;37.07
6032;BME280;3044;43.232;27.972;2023-08-12T11:02:46;44908.16;;;-143.84;36.73
6032;BME280;3044;43.232;27.972;2023-08-12T11:05:15;44934.81;;;-143.84;38.25
6032;BME280;3044;43.232;27.972;2023-08-12T11:07:45;44908.16;;;-143.84;37.29
6032;BME280;3044;43.232;27.972;2023-08-12T11:10:14;44904.34;;;-143.84;36.16
6032;BME280;3044;43.232;27.972;2023-08-12T11:12:47;44910.06;;;-143.84;37.29
6032;BME280;3044;43.232;27.972;2023-08-12T11:15:15;44919.59;;;-143.84;37.34
6032;BME280;3044;43.232;27.972;2023-08-12T11:17:42;44913.88;;;-143.84;37.29
6032;BME280;3044;43.232;27.972;2023-08-12T11:20:12;44900.53;;;-143.84;37.84
6032;BME280;3044;43.232;27.972;2023-08-12T11:22:41;44923.41;;;-143.84;38.07
6032;BME280;3044;43.232;27.972;2023-08-12T11:25:09;44940.53;;;-143.84;38.01
6032;BME280;3044;43.232;27.972;2023-08-12T11:27:41;44931.00;;;-143.84;37.77
6032;BME280;3044;43.232;27.972;2023-08-12T11:30:09;44934.81;;;-143.84;36.95
6032;BME280;3044;43.232;27.972;2023-08-12T11:32:38;44902.44;;;-143.84;37.53
6032;BME280;3044;43.232;27.972;2023-08-12T11:35:07;44934.81;;;-143.84;38.83
6032;BME280;3044;43.232;27.972;2023-08-12T11:37:37;44921.50;;;-143.84;36.92
6032;BME280;3044;43.232;27.972;2023-08-12T11:40:06;44894.84;;;-143.84;36.58
6032;BME280;3044;43.232;27.972;2023-08-12T11:42:34;44919.59;;;-143.84;36.37
6032;BME280;3044;43.232;27.972;2023-08-12T11:45:02;44913.88;;;-143.84;35.87
6032;BME280;3044;43.232;27.972;2023-08-12T11:47:29;44919.59;;;-143.84;37.50
6032;BME280;3044;43.232;27.972;2023-08-12T11:49:57;44919.59;;;-143.84;36.67
6032;BME280;3044;43.232;27.972;2023-08-12T11:52:25;44944.34;;;-143.84;36.50
6032;BME280;3044;43.232;27.972;2023-08-12T11:54:53;44917.69;;;-143.84;36.31
6032;BME280;3044;43.232;27.972;2023-08-12T11:57:22;44953.88;;;-143.84;34.37
6032;BME280;3044;43.232;27.972;2023-08-12T11:59:49;44915.78;;;-143.84;36.28
6032;BME280;3044;43.232;27.972;2023-08-12T12:02:17;44932.91;;;-143.84;35.87
6032;BME280;3044;43.232;27.972;2023-08-12T12:04:44;44931.00;;;-143.84;37.21
6032;BME280;3044;43.232;27.972;2023-08-12T12:07:19;44925.31;;;-143.84;37.86
6032;BME280;3044;43.232;27.972;2023-08-12T12:09:49;44944.34;;;-143.84;37.20
6032;BME280;3044;43.232;27.972;2023-08-12T12:12:21;44936.72;;;-143.84;37.84
6032;BME280;3044;43.232;27.972;2023-08-12T12:14:50;44940.53;;;-143.84;39.39
6032;BME280;3044;43.232;27.972;2023-08-12T12:17:18;44913.88;;;-143.84;38.91
6032;BME280;3044;43.232;27.972;2023-08-12T12:19:50;44925.31;;;-143.84;39.21
6032;BME280;3044;43.232;27.972;2023-08-12T12:22:18;44936.72;;;-143.84;40.16
6032;BME280;3044;43.232;27.972;2023-08-12T12:24:45;44944.34;;;-143.84;39.66
6032;BME280;3044;43.232;27.972;2023-08-12T12:27:13;44957.66;;;-143.84;39.90
6032;BME280;3044;43.232;27.972;2023-08-12T12:29:42;44906.25;;;-143.84;39.92
6032;BME280;3044;43.232;27.972;2023-08-12T12:32:10;44934.81;;;-143.84;40.26
6032;BME280;3044;43.232;27.972;2023-08-12T12:34:38;44942.44;;;-143.84;40.26
6032;BME280;3044;43.232;27.972;2023-08-12T12:37:05;44951.97;;;-143.84;40.68
6032;BME280;3044;43.232;27.972;2023-08-12T12:39:32;44938.63;;;-143.84;40.66
6032;BME280;3044;43.232;27.972;2023-08-12T12:42:00;44946.25;;;-143.84;38.28
6032;BME280;3044;43.232;27.972;2023-08-12T12:44:27;44923.41;;;-143.84;40.15
6032;BME280;3044;43.232;27.972;2023-08-12T12:46:55;44942.44;;;-143.84;40.68
6032;BME280;3044;43.232;27.972;2023-08-12T12:49:23;44946.25;;;-143.84;41.79
6032;BME280;3044;43.232;27.972;2023-08-12T12:51:50;44932.91;;;-143.84;41.20
6032;BME280;3044;43.232;27.972;2023-08-12T12:54:17;44944.34;;;-143.84;39.86